Terminal Aerodrome Forecast
Issued by NWS Jacksonville, FL

Home | Current Version | Previous Version | Text Only | Print | Product List | Glossary On
Versions: 1 2 3 4 5 6 7 8 9 10 11 12 13 14 15 16 17 18 19 20 21 22 23 24 25 26 27 28
550
FTUS42 KJAX 221620 AAC
TAFSSI
TAF AMD
KSSI 221620Z 2216/2312 VRB04KT P6SM VCSH SCT025 BKN040
      TEMPO 2216/2218 BKN025
     FM221800 13009KT P6SM VCTS BKN040CB BKN250
      TEMPO 2218/2220 VRB10G20KT 3SM TSRA BKN025CB
     FM222100 14007KT P6SM SCT050 BKN250
     FM230200 18004KT P6SM SCT250
     FM230900 24004KT P6SM FEW250=

USA.gov is the U.S. government's official web portal to all federal, state and local government web resources and services.